createdAt,value
2023-08-25T00:01:32.003Z,52.89
2023-08-25T00:03:58.877Z,53.12
2023-08-25T00:06:25.667Z,52.95
2023-08-25T00:08:52.400Z,52.82
2023-08-25T00:11:19.205Z,52.79
2023-08-25T00:13:45.950Z,52.93
2023-08-25T00:16:13.195Z,53.03
2023-08-25T00:18:40.249Z,52.77
2023-08-25T00:21:07.015Z,52.92
2023-08-25T00:23:33.804Z,53.02
2023-08-25T00:26:00.595Z,52.84
2023-08-25T00:28:27.358Z,53.05
2023-08-25T00:30:56.059Z,53.07
2023-08-25T00:33:22.924Z,53.01
2023-08-25T00:35:51.106Z,52.65
2023-08-25T00:38:17.955Z,53.21
2023-08-25T00:40:44.719Z,52.98
2023-08-25T00:43:11.566Z,52.89
2023-08-25T00:45:42.912Z,53.16
2023-08-25T00:48:12.012Z,53.29
2023-08-25T00:50:41.099Z,53.14
2023-08-25T00:53:09.515Z,53.23
2023-08-25T00:55:36.684Z,53.15
2023-08-25T00:58:07.050Z,53.05
2023-08-25T01:00:34.674Z,53.08
2023-08-25T01:03:02.218Z,53.24
2023-08-25T01:05:29.047Z,53.41
2023-08-25T01:07:58.644Z,53.47
2023-08-25T01:10:48.045Z,53.56
2023-08-25T01:13:21.088Z,53.38
2023-08-25T01:15:54.542Z,53.59
2023-08-25T01:18:31.034Z,53.90
2023-08-25T01:21:00.051Z,53.84
2023-08-25T01:23:36.448Z,53.78
2023-08-25T01:26:04.516Z,53.78
2023-08-25T01:28:31.296Z,53.64
2023-08-25T01:31:00.441Z,53.50
2023-08-25T01:33:32.082Z,53.72
2023-08-25T01:36:23.111Z,53.64
2023-08-25T01:39:08.105Z,53.85
2023-08-25T01:41:50.651Z,53.91
2023-08-25T01:44:21.388Z,53.76
2023-08-25T01:46:52.847Z,53.81
2023-08-25T01:49:20.861Z,53.78
2023-08-25T01:51:47.743Z,53.54
2023-08-25T01:54:17.175Z,53.85
2023-08-25T01:56:44.535Z,53.99
2023-08-25T01:59:11.195Z,54.42
2023-08-25T02:01:38.054Z,54.28
2023-08-25T02:04:04.890Z,54.21
2023-08-25T02:06:31.671Z,54.35
2023-08-25T02:08:58.384Z,54.38
2023-08-25T02:11:25.245Z,54.22
2023-08-25T02:13:51.952Z,54.15
2023-08-25T02:16:19.583Z,54.24
2023-08-25T02:18:46.772Z,54.19
2023-08-25T02:21:13.493Z,54.18
2023-08-25T02:23:41.456Z,54.14
2023-08-25T02:26:08.296Z,54.38
2023-08-25T02:28:36.476Z,54.16
2023-08-25T02:31:30.222Z,54.47
2023-08-25T02:34:01.598Z,54.05
2023-08-25T02:36:28.336Z,53.99
2023-08-25T02:38:55.056Z,54.16
2023-08-25T02:41:21.813Z,54.02
2023-08-25T02:43:48.742Z,54.08
2023-08-25T02:46:16.613Z,53.99
2023-08-25T02:48:43.311Z,54.13
2023-08-25T02:51:16.037Z,54.25
2023-08-25T02:53:42.730Z,54.50
2023-08-25T02:56:09.512Z,54.37
2023-08-25T02:58:36.217Z,54.12
2023-08-25T03:01:13.029Z,54.47
2023-08-25T03:03:40.238Z,54.25
2023-08-25T03:06:07.160Z,54.19
2023-08-25T03:08:33.897Z,53.87
2023-08-25T03:11:04.256Z,53.98
2023-08-25T03:13:34.284Z,54.34
2023-08-25T03:16:03.467Z,54.51
2023-08-25T03:18:30.613Z,54.50
2023-08-25T03:20:57.398Z,54.54
2023-08-25T03:23:24.800Z,54.75
2023-08-25T03:25:51.603Z,54.72
2023-08-25T03:28:18.615Z,54.22
2023-08-25T03:30:45.405Z,54.50
2023-08-25T03:33:12.152Z,54.22
2023-08-25T03:35:39.401Z,54.24
2023-08-25T03:38:06.496Z,53.75
2023-08-25T03:40:34.151Z,54.08
2023-08-25T03:43:00.957Z,53.99
2023-08-25T03:45:28.103Z,53.88
2023-08-25T03:47:55.349Z,53.92
2023-08-25T03:50:22.937Z,53.99
2023-08-25T03:52:51.248Z,54.14
2023-08-25T03:55:18.156Z,53.93
2023-08-25T03:57:44.973Z,54.13
2023-08-25T04:00:12.067Z,53.94
2023-08-25T04:02:41.375Z,54.26
2023-08-25T04:05:08.791Z,54.44
2023-08-25T04:07:35.514Z,54.25
2023-08-25T04:10:02.269Z,54.70
2023-08-25T04:12:28.984Z,54.72
2023-08-25T04:14:55.743Z,54.99
2023-08-25T04:17:22.583Z,55.33
2023-08-25T04:19:49.489Z,55.00
2023-08-25T04:22:16.177Z,55.07
2023-08-25T04:24:43.929Z,55.17
2023-08-25T04:27:10.638Z,55.38
2023-08-25T04:29:37.555Z,55.38
2023-08-25T04:32:04.479Z,55.33
2023-08-25T04:34:31.298Z,55.16
2023-08-25T04:36:57.993Z,55.16
2023-08-25T04:39:25.381Z,55.11
2023-08-25T04:41:54.146Z,55.31
2023-08-25T04:44:20.923Z,55.10
2023-08-25T04:46:47.655Z,55.20
2023-08-25T04:49:14.905Z,54.92
2023-08-25T04:51:41.680Z,54.79
2023-08-25T04:54:08.401Z,54.63
2023-08-25T04:56:36.161Z,54.46
2023-08-25T04:59:02.908Z,54.11
2023-08-25T05:01:30.835Z,54.00
2023-08-25T05:03:57.635Z,53.67
2023-08-25T05:06:24.416Z,53.52
2023-08-25T05:08:51.341Z,53.49
2023-08-25T05:11:18.814Z,53.17
2023-08-25T05:13:45.797Z,52.58
2023-08-25T05:16:13.612Z,52.35
2023-08-25T05:18:40.434Z,52.07
2023-08-25T05:21:07.374Z,52.01
2023-08-25T05:23:34.244Z,51.59
2023-08-25T05:26:01.502Z,51.26
2023-08-25T05:28:28.386Z,51.18
2023-08-25T05:30:55.486Z,50.77
2023-08-25T05:33:22.314Z,51.02
2023-08-25T05:35:49.169Z,50.68
2023-08-25T05:38:16.547Z,50.67
2023-08-25T05:40:43.220Z,50.58
2023-08-25T05:43:10.521Z,50.38
2023-08-25T05:45:37.455Z,50.33
2023-08-25T05:48:04.640Z,50.21
2023-08-25T05:50:31.464Z,49.83
2023-08-25T05:52:58.240Z,49.92
2023-08-25T05:55:25.114Z,49.75
2023-08-25T05:57:52.199Z,49.61
2023-08-25T06:00:19.938Z,48.98
2023-08-25T06:02:46.884Z,49.05
2023-08-25T06:05:14.346Z,48.82
2023-08-25T06:07:41.061Z,48.57
2023-08-25T06:10:09.334Z,48.43
2023-08-25T06:12:36.035Z,48.10
2023-08-25T06:15:03.099Z,47.70
2023-08-25T06:17:30.363Z,47.20
2023-08-25T06:19:57.082Z,47.06
2023-08-25T06:22:24.374Z,46.65
2023-08-25T06:24:51.064Z,46.43
2023-08-25T06:27:19.636Z,45.98
2023-08-25T06:29:47.124Z,46.29
2023-08-25T06:32:15.585Z,46.22
2023-08-25T06:34:42.422Z,45.69
2023-08-25T06:37:09.179Z,45.52
2023-08-25T06:39:35.994Z,45.66
2023-08-25T06:42:03.167Z,45.48
2023-08-25T06:44:30.854Z,44.89
2023-08-25T06:47:00.063Z,45.23
2023-08-25T06:49:27.229Z,45.36
2023-08-25T06:51:54.059Z,45.23
2023-08-25T06:54:23.309Z,45.44
2023-08-25T06:56:50.295Z,45.79
2023-08-25T06:59:17.144Z,45.57
2023-08-25T07:01:44.957Z,45.20
2023-08-25T07:04:12.214Z,45.06
2023-08-25T07:06:38.951Z,45.01
2023-08-25T07:09:05.707Z,44.95
2023-08-25T07:11:32.478Z,44.79
2023-08-25T07:14:00.201Z,45.39
2023-08-25T07:16:28.982Z,44.95
2023-08-25T07:18:55.727Z,45.45
2023-08-25T07:21:22.929Z,45.11
2023-08-25T07:23:51.171Z,44.88
2023-08-25T07:26:17.866Z,44.80
2023-08-25T07:28:44.602Z,43.86
2023-08-25T07:31:11.406Z,43.70
2023-08-25T07:33:38.226Z,43.29
2023-08-25T07:36:06.183Z,43.02
2023-08-25T07:38:32.944Z,42.14
2023-08-25T07:40:59.751Z,41.89
2023-08-25T07:43:26.553Z,41.76
2023-08-25T07:45:54.306Z,41.23
2023-08-25T07:48:21.611Z,41.04
2023-08-25T07:50:48.476Z,40.98
2023-08-25T07:53:15.431Z,40.27
2023-08-25T07:55:43.025Z,39.98
2023-08-25T07:58:11.361Z,39.83
2023-08-25T08:00:39.191Z,39.70
2023-08-25T08:03:09.995Z,39.83
2023-08-25T08:05:37.409Z,39.42
2023-08-25T08:08:04.353Z,39.16
2023-08-25T08:10:31.097Z,39.19
2023-08-25T08:12:58.149Z,38.62
2023-08-25T08:15:25.534Z,38.20
2023-08-25T08:17:53.068Z,37.23
2023-08-25T08:20:20.475Z,35.74
2023-08-25T08:22:47.833Z,33.61
2023-08-25T08:25:15.777Z,31.34
2023-08-25T08:27:43.942Z,28.89
2023-08-25T08:30:11.494Z,26.85
2023-08-25T08:32:40.173Z,25.33
2023-08-25T08:35:11.338Z,24.07
2023-08-25T08:37:39.756Z,22.91
2023-08-25T08:40:09.615Z,22.32
2023-08-25T08:42:43.189Z,21.37
2023-08-25T08:45:12.168Z,21.29
2023-08-25T08:47:40.387Z,20.32
2023-08-25T08:50:08.610Z,20.36
2023-08-25T08:52:35.757Z,19.90
2023-08-25T08:55:06.825Z,19.67
2023-08-25T08:57:33.757Z,20.13
2023-08-25T09:00:00.808Z,20.75
2023-08-25T09:02:32.287Z,21.32
2023-08-25T09:05:00.424Z,22.09
2023-08-25T09:07:32.692Z,22.80
2023-08-25T09:10:00.581Z,23.31
2023-08-25T09:12:28.078Z,23.91
2023-08-25T09:14:54.887Z,24.36
2023-08-25T09:17:23.298Z,25.21
2023-08-25T09:19:50.927Z,25.77
2023-08-25T09:22:18.863Z,26.41
2023-08-25T09:24:46.172Z,26.91
2023-08-25T09:27:24.030Z,27.68
2023-08-25T09:30:05.249Z,28.56
2023-08-25T09:32:32.582Z,29.14
2023-08-25T09:35:23.410Z,30.39
2023-08-25T09:37:50.417Z,30.53
2023-08-25T09:40:18.851Z,30.77
2023-08-25T09:42:46.778Z,31.38
2023-08-25T09:45:13.932Z,32.16
2023-08-25T09:47:44.739Z,32.90
2023-08-25T09:50:19.000Z,33.45
2023-08-25T09:52:48.065Z,33.92
2023-08-25T09:55:15.472Z,34.54
2023-08-25T09:57:46.638Z,34.60
2023-08-25T10:00:14.253Z,34.83
2023-08-25T10:02:41.358Z,35.39
2023-08-25T10:05:11.235Z,35.59
2023-08-25T10:07:38.584Z,35.62
2023-08-25T10:10:07.001Z,35.62
2023-08-25T10:12:36.053Z,35.81
2023-08-25T10:15:04.666Z,36.12
2023-08-25T10:17:32.044Z,36.06
2023-08-25T10:20:02.661Z,36.34
2023-08-25T10:22:30.408Z,36.31
2023-08-25T10:25:02.600Z,36.57
2023-08-25T10:27:30.049Z,36.37
2023-08-25T10:29:58.289Z,36.67
2023-08-25T10:32:25.192Z,36.55
2023-08-25T10:34:54.468Z,36.78
2023-08-25T10:37:33.767Z,37.20
2023-08-25T10:40:08.712Z,37.03
2023-08-25T10:42:36.792Z,37.08
2023-08-25T10:45:10.590Z,37.20
2023-08-25T10:47:52.755Z,37.40
2023-08-25T10:50:23.936Z,37.16
2023-08-25T10:52:57.036Z,37.18
2023-08-25T10:55:31.070Z,36.85
2023-08-25T10:58:08.133Z,36.98
2023-08-25T11:00:39.485Z,37.12
2023-08-25T11:03:09.261Z,36.95
2023-08-25T11:05:36.520Z,36.92
2023-08-25T11:08:04.797Z,37.05
2023-08-25T11:10:35.154Z,36.97
2023-08-25T11:13:10.217Z,36.98
2023-08-25T11:15:39.841Z,37.17
2023-08-25T11:18:08.232Z,37.52
2023-08-25T11:20:35.218Z,37.42
2023-08-25T11:23:18.415Z,37.95
2023-08-25T11:25:48.443Z,37.62
2023-08-25T11:28:15.450Z,37.33
2023-08-25T11:30:42.479Z,37.53
2023-08-25T11:33:10.511Z,36.94
2023-08-25T11:35:37.508Z,37.33
2023-08-25T11:38:04.400Z,37.09
2023-08-25T11:40:31.798Z,37.19
2023-08-25T11:42:58.773Z,36.56
2023-08-25T11:45:29.822Z,36.49
2023-08-25T11:47:57.882Z,37.05
2023-08-25T11:50:26.218Z,36.87
2023-08-25T11:52:55.983Z,36.84
2023-08-25T11:55:36.448Z,36.84
2023-08-25T11:58:13.199Z,36.57
2023-08-25T12:00:40.118Z,36.77
2023-08-25T12:03:08.665Z,36.80
2023-08-25T12:05:36.735Z,36.85
2023-08-25T12:08:04.549Z,36.82
2023-08-25T12:10:40.601Z,36.39
2023-08-25T12:13:07.455Z,36.08
2023-08-25T12:15:45.575Z,35.93
2023-08-25T12:18:15.636Z,35.75
2023-08-25T12:20:45.858Z,36.08
2023-08-25T12:23:12.672Z,36.58
2023-08-25T12:25:39.645Z,36.03
2023-08-25T12:28:06.555Z,36.46
2023-08-25T12:30:33.395Z,36.25
2023-08-25T12:33:00.455Z,36.18
2023-08-25T12:35:27.578Z,36.51
2023-08-25T12:37:54.844Z,36.64
2023-08-25T12:40:21.850Z,36.37
2023-08-25T12:42:55.128Z,35.93
2023-08-25T12:45:23.652Z,35.69
2023-08-25T12:47:52.178Z,35.49
2023-08-25T12:50:19.393Z,35.51
2023-08-25T12:52:46.951Z,35.51
2023-08-25T12:55:21.182Z,35.63
2023-08-25T12:57:52.995Z,35.85
2023-08-25T13:00:20.304Z,35.99
2023-08-25T13:02:47.955Z,36.17
2023-08-25T13:05:16.001Z,36.30
2023-08-25T13:07:42.995Z,36.32
2023-08-25T13:10:10.733Z,36.61
2023-08-25T13:12:37.620Z,36.47
2023-08-25T13:15:05.564Z,36.49
2023-08-25T13:17:32.724Z,37.21
2023-08-25T13:19:59.491Z,37.02
2023-08-25T13:22:26.272Z,36.93
2023-08-25T13:24:53.121Z,37.28
2023-08-25T13:27:20.253Z,37.36
2023-08-25T13:29:47.057Z,36.75
2023-08-25T13:32:13.934Z,36.61
2023-08-25T13:34:40.782Z,36.63
2023-08-25T13:37:07.561Z,36.03
2023-08-25T13:39:36.217Z,36.30
2023-08-25T13:42:03.128Z,36.16
2023-08-25T13:44:34.306Z,35.86
2023-08-25T13:47:02.731Z,35.97
2023-08-25T13:49:29.466Z,35.58
2023-08-25T13:51:56.513Z,35.72
2023-08-25T13:54:24.004Z,35.79
2023-08-25T13:56:51.289Z,35.75
2023-08-25T13:59:18.589Z,35.54
2023-08-25T14:01:45.471Z,35.37
2023-08-25T14:04:12.274Z,35.37
2023-08-25T14:06:39.032Z,35.45
2023-08-25T14:09:07.077Z,35.41
2023-08-25T14:11:34.205Z,35.59
2023-08-25T14:14:01.546Z,35.49
2023-08-25T14:16:31.461Z,35.64
2023-08-25T14:18:58.249Z,35.86
2023-08-25T14:21:24.970Z,35.51
2023-08-25T14:23:52.298Z,35.84
2023-08-25T14:26:18.983Z,35.76
2023-08-25T14:28:45.737Z,35.69
2023-08-25T14:31:12.569Z,35.59
2023-08-25T14:33:39.373Z,35.66
2023-08-25T14:36:07.722Z,35.55
2023-08-25T14:38:34.888Z,35.41
2023-08-25T14:41:01.685Z,35.43
2023-08-25T14:43:28.425Z,35.51
2023-08-25T14:45:55.235Z,35.50
2023-08-25T14:48:22.039Z,35.91
2023-08-25T14:50:59.059Z,35.81
2023-08-25T14:53:25.864Z,36.00
2023-08-25T14:55:52.685Z,36.03
2023-08-25T14:58:19.517Z,35.93
2023-08-25T15:00:47.592Z,35.88
2023-08-25T15:03:14.578Z,35.76
2023-08-25T15:05:41.858Z,35.86
2023-08-25T15:08:08.638Z,36.18
2023-08-25T15:10:35.469Z,35.82
2023-08-25T15:13:02.371Z,35.96
2023-08-25T15:15:29.221Z,35.92
2023-08-25T15:17:56.443Z,35.68
2023-08-25T15:20:23.552Z,35.63
2023-08-25T15:22:50.362Z,35.40
2023-08-25T15:25:17.817Z,35.95
2023-08-25T15:27:45.263Z,35.86
2023-08-25T15:30:12.682Z,35.72
2023-08-25T15:32:43.830Z,35.78
2023-08-25T15:35:11.560Z,35.88
2023-08-25T15:37:38.326Z,35.71
2023-08-25T15:40:05.878Z,35.96
2023-08-25T15:42:32.649Z,36.07
2023-08-25T15:45:00.332Z,35.78
2023-08-25T15:47:27.099Z,35.46
2023-08-25T15:49:54.226Z,36.13
2023-08-25T15:52:21.615Z,35.63
2023-08-25T15:54:48.410Z,36.08
2023-08-25T15:57:15.169Z,36.12
2023-08-25T15:59:42.068Z,36.32
2023-08-25T16:02:08.822Z,36.34
2023-08-25T16:04:35.581Z,36.54
2023-08-25T16:07:02.367Z,36.25
2023-08-25T16:09:29.318Z,36.38
2023-08-25T16:11:56.165Z,36.31
2023-08-25T16:14:22.906Z,36.26
2023-08-25T16:16:50.980Z,36.42
2023-08-25T16:19:17.750Z,36.36
2023-08-25T16:21:44.520Z,36.77
2023-08-25T16:24:11.265Z,36.71
2023-08-25T16:26:39.292Z,37.13
2023-08-25T16:29:06.436Z,37.07
2023-08-25T16:31:33.218Z,37.02
2023-08-25T16:34:02.151Z,37.30
2023-08-25T16:36:28.904Z,37.48
2023-08-25T16:38:55.684Z,37.52
2023-08-25T16:41:22.626Z,37.66
2023-08-25T16:43:51.065Z,37.50
2023-08-25T16:46:17.892Z,37.80
2023-08-25T16:48:45.950Z,37.33
2023-08-25T16:51:12.700Z,37.29
2023-08-25T16:53:39.476Z,37.87
2023-08-25T16:56:06.282Z,37.90
2023-08-25T16:58:33.052Z,38.07
2023-08-25T17:00:59.889Z,38.24
2023-08-25T17:03:30.886Z,38.22
2023-08-25T17:06:01.819Z,38.32
2023-08-25T17:08:30.246Z,38.41
2023-08-25T17:10:57.045Z,38.81
2023-08-25T17:13:24.570Z,38.97
2023-08-25T17:15:52.844Z,38.88
2023-08-25T17:18:19.642Z,39.08
2023-08-25T17:20:46.444Z,39.80
2023-08-25T17:23:13.199Z,39.81
2023-08-25T17:25:39.923Z,39.37
2023-08-25T17:28:09.323Z,40.01
2023-08-25T17:30:36.305Z,40.13
2023-08-25T17:33:05.096Z,39.91
2023-08-25T17:35:32.037Z,40.42
2023-08-25T17:37:58.859Z,39.88
2023-08-25T17:40:25.695Z,40.50
2023-08-25T17:42:52.972Z,40.93
2023-08-25T17:45:19.968Z,41.12
2023-08-25T17:47:46.887Z,40.93
2023-08-25T17:50:13.865Z,41.32
2023-08-25T17:52:40.682Z,41.22
2023-08-25T17:55:07.987Z,41.47
2023-08-25T17:57:35.493Z,41.13
2023-08-25T18:00:02.976Z,41.66
2023-08-25T18:02:29.954Z,41.75
2023-08-25T18:04:56.846Z,41.98
2023-08-25T18:07:23.574Z,42.12
2023-08-25T18:09:50.569Z,41.88
2023-08-25T18:12:17.515Z,42.35
2023-08-25T18:14:44.313Z,42.74
2023-08-25T18:17:11.047Z,42.74
2023-08-25T18:19:37.803Z,42.92
2023-08-25T18:22:05.027Z,42.77
2023-08-25T18:24:31.895Z,43.41
2023-08-25T18:26:58.618Z,43.32
2023-08-25T18:29:25.983Z,43.95
2023-08-25T18:31:52.792Z,43.69
2023-08-25T18:34:22.729Z,44.06
2023-08-25T18:36:49.448Z,44.17
2023-08-25T18:39:16.403Z,44.37
2023-08-25T18:41:44.279Z,44.13
2023-08-25T18:44:11.062Z,44.63
2023-08-25T18:46:37.842Z,44.69
2023-08-25T18:49:05.484Z,45.10
2023-08-25T18:51:33.196Z,44.85
2023-08-25T18:54:00.004Z,45.18
2023-08-25T18:56:26.808Z,45.23
2023-08-25T18:58:53.809Z,45.55
2023-08-25T19:01:21.449Z,45.41
2023-08-25T19:03:48.318Z,45.65
2023-08-25T19:06:15.570Z,45.75
2023-08-25T19:08:42.384Z,45.75
2023-08-25T19:11:09.353Z,45.86
2023-08-25T19:13:36.148Z,45.96
2023-08-25T19:16:04.851Z,46.08
2023-08-25T19:18:31.777Z,46.33
2023-08-25T19:21:02.259Z,46.27
2023-08-25T19:23:34.115Z,46.69
2023-08-25T19:26:11.625Z,46.65
2023-08-25T19:28:42.536Z,46.72
2023-08-25T19:31:13.866Z,46.92
2023-08-25T19:33:40.841Z,46.78
2023-08-25T19:36:08.787Z,46.91
2023-08-25T19:38:36.245Z,47.03
2023-08-25T19:41:08.094Z,47.38
2023-08-25T19:43:40.580Z,47.49
2023-08-25T19:46:07.873Z,47.66
2023-08-25T19:48:38.402Z,47.82
2023-08-25T19:51:07.983Z,47.81
2023-08-25T19:53:35.877Z,47.88
2023-08-25T19:56:02.682Z,47.80
2023-08-25T19:58:29.633Z,48.08
2023-08-25T20:00:56.387Z,47.88
2023-08-25T20:03:24.137Z,47.96
2023-08-25T20:06:05.826Z,47.95
2023-08-25T20:08:33.043Z,47.76
2023-08-25T20:11:09.234Z,47.83
2023-08-25T20:13:40.220Z,48.09
2023-08-25T20:16:06.994Z,48.07
2023-08-25T20:18:34.072Z,48.11
2023-08-25T20:21:01.045Z,48.09
2023-08-25T20:23:30.787Z,48.09
2023-08-25T20:25:59.102Z,48.07
2023-08-25T20:28:26.117Z,48.35
2023-08-25T20:30:53.068Z,48.19
2023-08-25T20:33:20.233Z,48.38
2023-08-25T20:35:47.198Z,48.42
2023-08-25T20:38:15.558Z,48.70
2023-08-25T20:40:45.704Z,48.78
2023-08-25T20:43:13.608Z,48.73
2023-08-25T20:45:44.472Z,48.61
2023-08-25T20:48:13.155Z,48.82
2023-08-25T20:50:40.489Z,48.68
2023-08-25T20:53:07.225Z,48.61
2023-08-25T20:55:34.082Z,48.90
2023-08-25T20:58:01.028Z,49.12
2023-08-25T21:00:28.889Z,48.84
2023-08-25T21:02:57.139Z,48.88
2023-08-25T21:05:24.330Z,48.98
2023-08-25T21:07:51.418Z,49.00
2023-08-25T21:10:18.218Z,49.14
2023-08-25T21:12:45.069Z,48.83
2023-08-25T21:15:11.855Z,48.83
2023-08-25T21:17:38.579Z,48.73
2023-08-25T21:20:06.610Z,48.85
2023-08-25T21:22:33.612Z,48.93
2023-08-25T21:25:00.350Z,48.99
2023-08-25T21:27:27.127Z,49.03
2023-08-25T21:29:53.825Z,48.99
2023-08-25T21:32:21.677Z,49.13
2023-08-25T21:34:48.446Z,48.98
2023-08-25T21:37:15.282Z,49.58
2023-08-25T21:39:42.049Z,49.78
2023-08-25T21:42:08.828Z,50.38
2023-08-25T21:44:35.875Z,50.63
2023-08-25T21:47:03.217Z,51.01
2023-08-25T21:49:30.017Z,51.08
2023-08-25T21:51:56.945Z,51.57
2023-08-25T21:54:23.655Z,51.57
2023-08-25T21:56:50.422Z,52.06
2023-08-25T21:59:17.152Z,52.49
2023-08-25T22:01:43.946Z,52.60
2023-08-25T22:04:12.533Z,52.34
2023-08-25T22:06:39.800Z,52.46
2023-08-25T22:09:06.520Z,52.95
2023-08-25T22:11:33.752Z,53.38
2023-08-25T22:14:01.301Z,53.76
2023-08-25T22:16:28.446Z,53.97
2023-08-25T22:18:55.924Z,53.63
2023-08-25T22:21:22.720Z,53.72
2023-08-25T22:23:50.528Z,53.99
2023-08-25T22:26:17.956Z,54.22
2023-08-25T22:28:45.698Z,54.70
2023-08-25T22:31:12.473Z,54.98
2023-08-25T22:36:08.851Z,55.16
2023-08-25T22:38:36.440Z,55.93
2023-08-25T22:41:03.374Z,55.99
2023-08-25T22:43:33.138Z,56.02
2023-08-25T22:46:07.390Z,55.95
2023-08-25T22:48:34.213Z,56.09
2023-08-25T22:51:01.151Z,56.71
2023-08-25T22:53:28.664Z,56.43
2023-08-25T22:55:56.198Z,57.09
2023-08-25T22:58:24.015Z,56.53
2023-08-25T23:00:51.153Z,56.93
2023-08-25T23:03:18.021Z,56.93
2023-08-25T23:05:45.245Z,56.62
2023-08-25T23:08:12.087Z,56.94
2023-08-25T23:10:40.395Z,56.71
2023-08-25T23:13:11.025Z,57.10
2023-08-25T23:15:38.332Z,57.35
2023-08-25T23:18:06.389Z,57.14
2023-08-25T23:20:36.358Z,57.38
2023-08-25T23:23:03.336Z,57.39
2023-08-25T23:25:30.232Z,57.49
2023-08-25T23:27:57.382Z,57.80
2023-08-25T23:30:24.380Z,57.80
2023-08-25T23:32:51.181Z,58.03
2023-08-25T23:35:18.421Z,58.12
2023-08-25T23:37:45.556Z,58.22
2023-08-25T23:40:13.042Z,57.87
2023-08-25T23:42:39.918Z,58.04
2023-08-25T23:45:07.209Z,58.05
2023-08-25T23:47:34.346Z,57.80
2023-08-25T23:50:01.741Z,58.19
2023-08-25T23:52:28.687Z,57.74
2023-08-25T23:54:57.988Z,57.51
2023-08-25T23:57:25.568Z,57.80
2023-08-25T23:59:53.888Z,57.74
